sensor_id;sensor_type;location;lat;lon;timestamp;pressure;altitude;pressure_sealevel;temperature;humidity
56176;BME280;63065;51.082;17.016;2023-05-19T00:01:53;101316.18;;;12.92;59.14
56176;BME280;63065;51.082;17.016;2023-05-19T00:04:19;101314.16;;;12.80;58.89
56176;BME280;63065;51.082;17.016;2023-05-19T00:06:49;101313.02;;;12.76;58.73
56176;BME280;63065;51.082;17.016;2023-05-19T00:09:10;101314.27;;;12.35;58.54
56176;BME280;63065;51.082;17.016;2023-05-19T00:11:36;101314.54;;;12.50;58.59
56176;BME280;63065;51.082;17.016;2023-05-19T00:14:00;101324.66;;;12.65;58.46
56176;BME280;63065;51.082;17.016;2023-05-19T00:16:26;101328.29;;;12.60;58.21
56176;BME280;63065;51.082;17.016;2023-05-19T00:18:51;101327.12;;;12.70;58.12
56176;BME280;63065;51.082;17.016;2023-05-19T00:21:16;101328.04;;;12.64;58.22
56176;BME280;63065;51.082;17.016;2023-05-19T00:23:42;101325.11;;;12.17;58.24
56176;BME280;63065;51.082;17.016;2023-05-19T00:26:08;101326.16;;;12.48;58.47
56176;BME280;63065;51.082;17.016;2023-05-19T00:28:34;101322.39;;;12.31;58.45
56176;BME280;63065;51.082;17.016;2023-05-19T00:30:58;101322.08;;;12.13;58.51
56176;BME280;63065;51.082;17.016;2023-05-19T00:33:24;101321.80;;;11.96;58.69
56176;BME280;63065;51.082;17.016;2023-05-19T00:35:50;101321.37;;;11.95;59.04
56176;BME280;63065;51.082;17.016;2023-05-19T00:38:15;101321.03;;;12.02;59.22
56176;BME280;63065;51.082;17.016;2023-05-19T00:40:40;101321.25;;;11.91;59.02
56176;BME280;63065;51.082;17.016;2023-05-19T00:43:06;101320.21;;;11.80;58.99
56176;BME280;63065;51.082;17.016;2023-05-19T00:45:31;101320.10;;;11.82;59.16
56176;BME280;63065;51.082;17.016;2023-05-19T00:47:57;101316.06;;;11.71;59.36
56176;BME280;63065;51.082;17.016;2023-05-19T00:50:23;101315.49;;;11.45;59.45
56176;BME280;63065;51.082;17.016;2023-05-19T00:52:49;101318.10;;;11.57;59.69
56176;BME280;63065;51.082;17.016;2023-05-19T00:55:14;101318.96;;;11.73;59.81
56176;BME280;63065;51.082;17.016;2023-05-19T00:57:41;101320.53;;;11.72;59.80
56176;BME280;63065;51.082;17.016;2023-05-19T01:00:07;101323.39;;;11.70;59.86
56176;BME280;63065;51.082;17.016;2023-05-19T01:02:31;101322.42;;;11.69;59.91
56176;BME280;63065;51.082;17.016;2023-05-19T01:04:56;101319.98;;;11.56;60.03
56176;BME280;63065;51.082;17.016;2023-05-19T01:07:22;101314.29;;;11.51;60.19
56176;BME280;63065;51.082;17.016;2023-05-19T01:09:47;101312.52;;;11.64;60.35
56176;BME280;63065;51.082;17.016;2023-05-19T01:12:13;101310.59;;;11.50;60.47
56176;BME280;63065;51.082;17.016;2023-05-19T01:14:38;101307.70;;;11.54;60.49
56176;BME280;63065;51.082;17.016;2023-05-19T01:17:08;101310.89;;;11.47;60.61
56176;BME280;63065;51.082;17.016;2023-05-19T01:19:42;101312.27;;;11.54;60.52
56176;BME280;63065;51.082;17.016;2023-05-19T01:22:05;101314.31;;;11.50;60.65
56176;BME280;63065;51.082;17.016;2023-05-19T01:24:33;101315.95;;;11.53;60.86
56176;BME280;63065;51.082;17.016;2023-05-19T01:29:27;101318.26;;;11.60;61.08
56176;BME280;63065;51.082;17.016;2023-05-19T01:31:39;101318.67;;;11.78;61.18
56176;BME280;63065;51.082;17.016;2023-05-19T01:34:03;101321.92;;;11.86;61.19
56176;BME280;63065;51.082;17.016;2023-05-19T01:36:28;101322.29;;;11.99;61.14
56176;BME280;63065;51.082;17.016;2023-05-19T01:38:57;101322.80;;;11.89;60.98
56176;BME280;63065;51.082;17.016;2023-05-19T01:41:21;101322.81;;;11.96;61.04
56176;BME280;63065;51.082;17.016;2023-05-19T01:43:45;101323.54;;;12.04;61.03
56176;BME280;63065;51.082;17.016;2023-05-19T01:46:11;101323.08;;;12.08;60.92
56176;BME280;63065;51.082;17.016;2023-05-19T01:48:36;101321.79;;;11.88;60.76
56176;BME280;63065;51.082;17.016;2023-05-19T01:51:02;101322.21;;;12.05;60.85
56176;BME280;63065;51.082;17.016;2023-05-19T01:53:27;101324.47;;;11.92;60.81
56176;BME280;63065;51.082;17.016;2023-05-19T01:55:55;101323.61;;;11.97;60.90
56176;BME280;63065;51.082;17.016;2023-05-19T01:58:30;101324.79;;;12.11;60.97
56176;BME280;63065;51.082;17.016;2023-05-19T02:00:51;101321.78;;;12.04;60.97
56176;BME280;63065;51.082;17.016;2023-05-19T02:03:17;101320.93;;;11.95;60.77
56176;BME280;63065;51.082;17.016;2023-05-19T02:05:41;101317.08;;;11.85;60.81
56176;BME280;63065;51.082;17.016;2023-05-19T02:08:14;101318.24;;;11.62;60.89
56176;BME280;63065;51.082;17.016;2023-05-19T02:10:27;101316.52;;;11.61;60.97
56176;BME280;63065;51.082;17.016;2023-05-19T02:12:53;101316.30;;;11.69;60.96
56176;BME280;63065;51.082;17.016;2023-05-19T02:15:21;101315.88;;;11.63;61.13
56176;BME280;63065;51.082;17.016;2023-05-19T02:17:44;101315.14;;;11.67;61.27
56176;BME280;63065;51.082;17.016;2023-05-19T02:20:09;101312.81;;;11.69;61.37
56176;BME280;63065;51.082;17.016;2023-05-19T02:22:34;101314.50;;;11.93;61.50
56176;BME280;63065;51.082;17.016;2023-05-19T02:24:59;101312.53;;;11.86;61.47
56176;BME280;63065;51.082;17.016;2023-05-19T02:27:25;101314.56;;;11.90;61.23
56176;BME280;63065;51.082;17.016;2023-05-19T02:29:50;101315.14;;;12.27;60.99
56176;BME280;63065;51.082;17.016;2023-05-19T02:32:17;101314.14;;;12.03;60.97
56176;BME280;63065;51.082;17.016;2023-05-19T02:34:41;101313.66;;;12.12;61.19
56176;BME280;63065;51.082;17.016;2023-05-19T02:37:07;101313.08;;;12.20;61.24
56176;BME280;63065;51.082;17.016;2023-05-19T02:39:33;101311.55;;;12.19;61.28
56176;BME280;63065;51.082;17.016;2023-05-19T02:41:58;101310.35;;;12.46;60.77
56176;BME280;63065;51.082;17.016;2023-05-19T02:44:24;101306.51;;;12.26;60.67
56176;BME280;63065;51.082;17.016;2023-05-19T02:46:49;101307.61;;;12.38;60.58
56176;BME280;63065;51.082;17.016;2023-05-19T02:49:15;101305.91;;;12.33;60.44
56176;BME280;63065;51.082;17.016;2023-05-19T02:51:40;101306.36;;;12.55;60.18
56176;BME280;63065;51.082;17.016;2023-05-19T02:54:06;101302.40;;;12.32;60.18
56176;BME280;63065;51.082;17.016;2023-05-19T02:56:31;101301.25;;;12.66;59.92
56176;BME280;63065;51.082;17.016;2023-05-19T02:58:57;101300.61;;;12.63;59.61
56176;BME280;63065;51.082;17.016;2023-05-19T03:01:23;101301.54;;;12.14;59.68
56176;BME280;63065;51.082;17.016;2023-05-19T03:03:48;101303.43;;;12.28;59.84
56176;BME280;63065;51.082;17.016;2023-05-19T03:06:13;101305.56;;;12.23;60.02
56176;BME280;63065;51.082;17.016;2023-05-19T03:08:38;101309.96;;;12.07;60.20
56176;BME280;63065;51.082;17.016;2023-05-19T03:11:04;101309.03;;;12.08;60.37
56176;BME280;63065;51.082;17.016;2023-05-19T03:13:29;101306.16;;;12.08;60.55
56176;BME280;63065;51.082;17.016;2023-05-19T03:15:55;101309.35;;;11.95;60.77
56176;BME280;63065;51.082;17.016;2023-05-19T03:18:20;101308.12;;;11.63;60.99
56176;BME280;63065;51.082;17.016;2023-05-19T03:20:45;101310.23;;;11.91;61.30
56176;BME280;63065;51.082;17.016;2023-05-19T03:23:10;101309.97;;;11.73;61.56
56176;BME280;63065;51.082;17.016;2023-05-19T03:25:36;101308.70;;;11.68;61.72
56176;BME280;63065;51.082;17.016;2023-05-19T03:28:02;101307.17;;;11.77;61.91
56176;BME280;63065;51.082;17.016;2023-05-19T03:30:27;101307.41;;;11.81;62.01
56176;BME280;63065;51.082;17.016;2023-05-19T03:32:53;101302.67;;;11.78;62.08
56176;BME280;63065;51.082;17.016;2023-05-19T03:35:19;101302.42;;;11.70;62.16
56176;BME280;63065;51.082;17.016;2023-05-19T03:37:45;101301.33;;;11.58;62.07
56176;BME280;63065;51.082;17.016;2023-05-19T03:40:10;101300.44;;;12.14;62.05
56176;BME280;63065;51.082;17.016;2023-05-19T03:42:35;101301.27;;;12.10;61.51
56176;BME280;63065;51.082;17.016;2023-05-19T03:45:00;101297.80;;;11.61;61.44
56176;BME280;63065;51.082;17.016;2023-05-19T03:47:26;101300.30;;;12.09;61.71
56176;BME280;63065;51.082;17.016;2023-05-19T03:49:52;101300.34;;;13.15;61.77
56176;BME280;63065;51.082;17.016;2023-05-19T03:52:17;101302.34;;;12.73;60.99
56176;BME280;63065;51.082;17.016;2023-05-19T03:54:42;101303.09;;;12.28;61.03
56176;BME280;63065;51.082;17.016;2023-05-19T03:57:09;101303.49;;;12.19;61.19
56176;BME280;63065;51.082;17.016;2023-05-19T03:59:34;101306.93;;;12.08;61.23
56176;BME280;63065;51.082;17.016;2023-05-19T04:01:59;101306.40;;;12.84;61.47
56176;BME280;63065;51.082;17.016;2023-05-19T04:04:25;101308.75;;;12.48;61.31
56176;BME280;63065;51.082;17.016;2023-05-19T04:06:50;101307.72;;;12.55;61.33
56176;BME280;63065;51.082;17.016;2023-05-19T04:09:15;101305.13;;;12.32;61.29
56176;BME280;63065;51.082;17.016;2023-05-19T04:11:42;101307.01;;;12.67;61.25
56176;BME280;63065;51.082;17.016;2023-05-19T04:14:07;101304.84;;;12.75;61.12
56176;BME280;63065;51.082;17.016;2023-05-19T04:16:32;101308.00;;;12.51;60.85
56176;BME280;63065;51.082;17.016;2023-05-19T04:18:58;101307.72;;;12.79;61.14
56176;BME280;63065;51.082;17.016;2023-05-19T04:21:23;101310.92;;;13.19;60.98
56176;BME280;63065;51.082;17.016;2023-05-19T04:23:49;101310.67;;;12.89;60.46
56176;BME280;63065;51.082;17.016;2023-05-19T04:26:14;101312.02;;;12.96;60.49
56176;BME280;63065;51.082;17.016;2023-05-19T04:28:40;101313.65;;;12.65;60.35
56176;BME280;63065;51.082;17.016;2023-05-19T04:31:05;101314.60;;;12.86;60.35
56176;BME280;63065;51.082;17.016;2023-05-19T04:33:31;101312.56;;;12.34;60.37
56176;BME280;63065;51.082;17.016;2023-05-19T04:35:56;101309.41;;;12.78;60.66
56176;BME280;63065;51.082;17.016;2023-05-19T04:38:22;101306.52;;;12.61;60.84
56176;BME280;63065;51.082;17.016;2023-05-19T04:40:47;101308.17;;;13.26;61.08
56176;BME280;63065;51.082;17.016;2023-05-19T04:43:13;101308.23;;;12.91;60.61
56176;BME280;63065;51.082;17.016;2023-05-19T04:45:38;101308.13;;;12.53;60.20
56176;BME280;63065;51.082;17.016;2023-05-19T04:48:04;101311.47;;;12.84;59.84
56176;BME280;63065;51.082;17.016;2023-05-19T04:50:29;101316.38;;;12.50;59.93
56176;BME280;63065;51.082;17.016;2023-05-19T04:52:55;101314.97;;;12.49;60.39
56176;BME280;63065;51.082;17.016;2023-05-19T04:55:20;101318.35;;;12.77;60.45
56176;BME280;63065;51.082;17.016;2023-05-19T04:57:45;101318.47;;;12.76;60.65
56176;BME280;63065;51.082;17.016;2023-05-19T05:00:12;101320.21;;;13.10;60.89
56176;BME280;63065;51.082;17.016;2023-05-19T05:02:42;101321.44;;;13.84;60.42
56176;BME280;63065;51.082;17.016;2023-05-19T05:05:03;101318.94;;;13.66;60.14
56176;BME280;63065;51.082;17.016;2023-05-19T05:07:28;101322.76;;;13.40;59.90
56176;BME280;63065;51.082;17.016;2023-05-19T05:09:53;101324.97;;;12.79;59.72
56176;BME280;63065;51.082;17.016;2023-05-19T05:12:20;101323.91;;;12.87;60.29
56176;BME280;63065;51.082;17.016;2023-05-19T05:14:45;101325.83;;;13.61;59.81
56176;BME280;63065;51.082;17.016;2023-05-19T05:17:11;101325.87;;;13.68;59.62
56176;BME280;63065;51.082;17.016;2023-05-19T05:19:36;101327.12;;;14.02;59.01
56176;BME280;63065;51.082;17.016;2023-05-19T05:22:02;101331.51;;;13.24;58.71
56176;BME280;63065;51.082;17.016;2023-05-19T05:24:27;101330.30;;;12.72;58.51
56176;BME280;63065;51.082;17.016;2023-05-19T05:26:53;101329.07;;;12.77;58.93
56176;BME280;63065;51.082;17.016;2023-05-19T05:29:19;101329.78;;;12.48;59.35
56176;BME280;63065;51.082;17.016;2023-05-19T05:31:43;101328.19;;;12.78;59.98
56176;BME280;63065;51.082;17.016;2023-05-19T05:34:09;101328.27;;;12.76;60.07
56176;BME280;63065;51.082;17.016;2023-05-19T05:36:34;101327.64;;;12.95;60.25
56176;BME280;63065;51.082;17.016;2023-05-19T05:39:00;101327.38;;;12.26;60.04
56176;BME280;63065;51.082;17.016;2023-05-19T05:41:26;101326.44;;;12.52;60.56
56176;BME280;63065;51.082;17.016;2023-05-19T05:43:51;101325.17;;;12.52;60.49
56176;BME280;63065;51.082;17.016;2023-05-19T05:46:17;101323.22;;;12.76;60.30
56176;BME280;63065;51.082;17.016;2023-05-19T05:48:42;101327.34;;;12.38;60.14
56176;BME280;63065;51.082;17.016;2023-05-19T05:51:08;101326.95;;;12.84;60.47
56176;BME280;63065;51.082;17.016;2023-05-19T05:53:36;101327.06;;;12.60;60.35
56176;BME280;63065;51.082;17.016;2023-05-19T05:55:59;101326.96;;;12.88;60.38
56176;BME280;63065;51.082;17.016;2023-05-19T05:58:24;101325.73;;;13.04;60.36
56176;BME280;63065;51.082;17.016;2023-05-19T06:00:50;101323.47;;;13.11;60.42
56176;BME280;63065;51.082;17.016;2023-05-19T06:03:15;101324.89;;;13.39;60.62
56176;BME280;63065;51.082;17.016;2023-05-19T06:05:40;101326.64;;;13.74;60.43
56176;BME280;63065;51.082;17.016;2023-05-19T06:08:06;101329.88;;;13.54;60.31
56176;BME280;63065;51.082;17.016;2023-05-19T06:10:32;101331.92;;;13.35;60.22
56176;BME280;63065;51.082;17.016;2023-05-19T06:12:57;101334.17;;;13.30;60.21
56176;BME280;63065;51.082;17.016;2023-05-19T06:15:23;101339.77;;;13.08;60.47
56176;BME280;63065;51.082;17.016;2023-05-19T06:17:48;101339.20;;;14.02;60.72
56176;BME280;63065;51.082;17.016;2023-05-19T06:20:14;101342.20;;;13.03;60.34
56176;BME280;63065;51.082;17.016;2023-05-19T06:22:39;101344.40;;;13.10;60.55
56176;BME280;63065;51.082;17.016;2023-05-19T06:25:05;101344.85;;;13.12;60.83
56176;BME280;63065;51.082;17.016;2023-05-19T06:27:30;101346.83;;;13.46;61.00
56176;BME280;63065;51.082;17.016;2023-05-19T06:29:56;101346.24;;;13.55;61.24
56176;BME280;63065;51.082;17.016;2023-05-19T06:32:21;101344.30;;;13.44;61.43
56176;BME280;63065;51.082;17.016;2023-05-19T06:34:47;101343.67;;;13.41;61.48
56176;BME280;63065;51.082;17.016;2023-05-19T06:37:13;101346.62;;;13.71;61.69
56176;BME280;63065;51.082;17.016;2023-05-19T06:39:38;101347.18;;;13.21;61.65
56176;BME280;63065;51.082;17.016;2023-05-19T06:42:04;101348.23;;;13.85;61.42
56176;BME280;63065;51.082;17.016;2023-05-19T06:44:29;101349.25;;;13.34;61.38
56176;BME280;63065;51.082;17.016;2023-05-19T06:46:55;101349.43;;;13.45;61.94
56176;BME280;63065;51.082;17.016;2023-05-19T06:49:20;101350.76;;;13.18;62.15
56176;BME280;63065;51.082;17.016;2023-05-19T06:51:45;101348.35;;;13.73;62.58
56176;BME280;63065;51.082;17.016;2023-05-19T06:54:11;101350.05;;;13.63;62.40
56176;BME280;63065;51.082;17.016;2023-05-19T06:56:36;101351.67;;;13.36;62.51
56176;BME280;63065;51.082;17.016;2023-05-19T06:59:02;101352.34;;;13.81;62.53
56176;BME280;63065;51.082;17.016;2023-05-19T07:01:27;101355.98;;;13.44;62.58
56176;BME280;63065;51.082;17.016;2023-05-19T07:03:53;101356.02;;;14.02;62.81
56176;BME280;63065;51.082;17.016;2023-05-19T07:06:18;101355.74;;;13.76;62.81
56176;BME280;63065;51.082;17.016;2023-05-19T07:08:44;101356.84;;;13.75;62.87
56176;BME280;63065;51.082;17.016;2023-05-19T07:11:09;101356.19;;;14.13;62.78
56176;BME280;63065;51.082;17.016;2023-05-19T07:13:35;101361.34;;;13.60;62.51
56176;BME280;63065;51.082;17.016;2023-05-19T07:16:00;101361.81;;;13.28;62.65
56176;BME280;63065;51.082;17.016;2023-05-19T07:18:26;101360.55;;;13.87;62.80
56176;BME280;63065;51.082;17.016;2023-05-19T07:20:52;101366.58;;;13.83;62.69
56176;BME280;63065;51.082;17.016;2023-05-19T07:23:17;101361.77;;;13.83;62.56
56176;BME280;63065;51.082;17.016;2023-05-19T07:25:43;101366.70;;;13.71;62.51
56176;BME280;63065;51.082;17.016;2023-05-19T07:28:08;101366.45;;;13.83;62.80
56176;BME280;63065;51.082;17.016;2023-05-19T07:30:33;101365.93;;;13.68;62.83
56176;BME280;63065;51.082;17.016;2023-05-19T07:32:58;101368.33;;;13.73;62.73
56176;BME280;63065;51.082;17.016;2023-05-19T07:35:25;101364.83;;;13.22;62.85
56176;BME280;63065;51.082;17.016;2023-05-19T07:37:50;101365.73;;;13.32;62.75
56176;BME280;63065;51.082;17.016;2023-05-19T07:40:15;101363.76;;;13.46;63.15
56176;BME280;63065;51.082;17.016;2023-05-19T07:42:41;101363.72;;;13.59;63.61
56176;BME280;63065;51.082;17.016;2023-05-19T07:45:07;101363.81;;;13.86;63.59
56176;BME280;63065;51.082;17.016;2023-05-19T07:47:31;101363.28;;;13.57;63.67
56176;BME280;63065;51.082;17.016;2023-05-19T07:49:57;101366.30;;;13.53;63.88
56176;BME280;63065;51.082;17.016;2023-05-19T07:52:23;101366.96;;;13.56;64.29
56176;BME280;63065;51.082;17.016;2023-05-19T07:54:49;101364.59;;;14.20;64.72
56176;BME280;63065;51.082;17.016;2023-05-19T07:57:15;101366.54;;;14.14;64.52
56176;BME280;63065;51.082;17.016;2023-05-19T07:59:40;101363.09;;;13.92;64.80
56176;BME280;63065;51.082;17.016;2023-05-19T08:02:06;101370.11;;;13.39;64.56
56176;BME280;63065;51.082;17.016;2023-05-19T08:04:31;101370.39;;;14.22;64.93
56176;BME280;63065;51.082;17.016;2023-05-19T08:06:57;101367.86;;;13.57;64.97
56176;BME280;63065;51.082;17.016;2023-05-19T08:09:23;101363.21;;;13.76;65.33
56176;BME280;63065;51.082;17.016;2023-05-19T08:11:48;101360.12;;;14.00;65.70
56176;BME280;63065;51.082;17.016;2023-05-19T08:14:13;101358.19;;;14.26;65.57
56176;BME280;63065;51.082;17.016;2023-05-19T08:16:39;101359.51;;;14.04;65.27
56176;BME280;63065;51.082;17.016;2023-05-19T08:19:05;101359.35;;;13.80;65.41
56176;BME280;63065;51.082;17.016;2023-05-19T08:21:31;101359.80;;;13.84;65.26
56176;BME280;63065;51.082;17.016;2023-05-19T08:23:56;101356.53;;;13.89;65.22
56176;BME280;63065;51.082;17.016;2023-05-19T08:26:23;101354.06;;;13.92;65.28
56176;BME280;63065;51.082;17.016;2023-05-19T08:28:48;101355.43;;;14.28;65.53
56176;BME280;63065;51.082;17.016;2023-05-19T08:31:13;101350.53;;;14.57;65.50
56176;BME280;63065;51.082;17.016;2023-05-19T08:33:39;101347.04;;;14.57;65.27
56176;BME280;63065;51.082;17.016;2023-05-19T08:36:05;101347.61;;;14.41;64.97
56176;BME280;63065;51.082;17.016;2023-05-19T08:38:30;101348.93;;;14.48;64.74
56176;BME280;63065;51.082;17.016;2023-05-19T08:40:56;101348.22;;;14.40;64.55
56176;BME280;63065;51.082;17.016;2023-05-19T08:43:22;101350.87;;;14.40;64.28
56176;BME280;63065;51.082;17.016;2023-05-19T08:45:47;101350.16;;;15.07;63.88
56176;BME280;63065;51.082;17.016;2023-05-19T08:48:13;101351.70;;;14.48;63.22
56176;BME280;63065;51.082;17.016;2023-05-19T08:50:39;101351.97;;;14.64;63.24
56176;BME280;63065;51.082;17.016;2023-05-19T08:53:10;101353.34;;;14.62;63.11
56176;BME280;63065;51.082;17.016;2023-05-19T08:55:32;101352.56;;;14.23;62.98
56176;BME280;63065;51.082;17.016;2023-05-19T08:57:55;101354.98;;;14.86;63.12
56176;BME280;63065;51.082;17.016;2023-05-19T09:00:21;101353.03;;;14.99;62.81
56176;BME280;63065;51.082;17.016;2023-05-19T09:02:48;101350.99;;;14.88;62.29
56176;BME280;63065;51.082;17.016;2023-05-19T09:05:12;101351.72;;;14.43;62.22
56176;BME280;63065;51.082;17.016;2023-05-19T09:07:38;101349.96;;;14.44;62.08
56176;BME280;63065;51.082;17.016;2023-05-19T09:10:06;101348.92;;;14.45;62.38
56176;BME280;63065;51.082;17.016;2023-05-19T09:12:28;101351.11;;;15.03;62.78
56176;BME280;63065;51.082;17.016;2023-05-19T09:14:53;101350.69;;;15.60;62.51
56176;BME280;63065;51.082;17.016;2023-05-19T09:17:20;101346.61;;;15.72;62.24
56176;BME280;63065;51.082;17.016;2023-05-19T09:19:45;101346.47;;;15.29;60.86
56176;BME280;63065;51.082;17.016;2023-05-19T09:22:11;101345.57;;;15.15;60.85
56176;BME280;63065;51.082;17.016;2023-05-19T09:24:37;101346.64;;;15.65;61.37
56176;BME280;63065;51.082;17.016;2023-05-19T09:27:03;101339.54;;;15.60;60.59
56176;BME280;63065;51.082;17.016;2023-05-19T09:29:28;101339.66;;;15.33;60.44
56176;BME280;63065;51.082;17.016;2023-05-19T09:31:54;101338.45;;;15.89;60.92
56176;BME280;63065;51.082;17.016;2023-05-19T09:34:20;101333.80;;;16.24;60.61
56176;BME280;63065;51.082;17.016;2023-05-19T09:36:46;101334.71;;;16.68;60.24
56176;BME280;63065;51.082;17.016;2023-05-19T09:39:14;101333.64;;;16.46;59.95
56176;BME280;63065;51.082;17.016;2023-05-19T09:41:36;101332.32;;;16.24;59.79
56176;BME280;63065;51.082;17.016;2023-05-19T09:44:02;101333.26;;;15.99;58.69
56176;BME280;63065;51.082;17.016;2023-05-19T09:46:28;101331.63;;;14.61;58.61
56176;BME280;63065;51.082;17.016;2023-05-19T09:48:56;101329.28;;;15.40;59.56
56176;BME280;63065;51.082;17.016;2023-05-19T09:51:20;101327.53;;;15.71;60.28
56176;BME280;63065;51.082;17.016;2023-05-19T09:53:47;101326.95;;;16.00;60.17
56176;BME280;63065;51.082;17.016;2023-05-19T09:56:10;101320.80;;;15.84;60.01
56176;BME280;63065;51.082;17.016;2023-05-19T09:58:36;101316.17;;;15.86;60.10
56176;BME280;63065;51.082;17.016;2023-05-19T10:01:02;101315.71;;;16.06;60.33
56176;BME280;63065;51.082;17.016;2023-05-19T10:03:27;101310.92;;;16.30;60.20
56176;BME280;63065;51.082;17.016;2023-05-19T10:05:53;101308.44;;;16.52;60.01
56176;BME280;63065;51.082;17.016;2023-05-19T10:08:19;101310.69;;;17.03;59.82
56176;BME280;63065;51.082;17.016;2023-05-19T10:10:45;101311.48;;;16.34;59.10
56176;BME280;63065;51.082;17.016;2023-05-19T10:13:15;101313.99;;;16.76;59.40
56176;BME280;63065;51.082;17.016;2023-05-19T10:15:36;101306.33;;;16.39;59.13
56176;BME280;63065;51.082;17.016;2023-05-19T10:18:02;101307.45;;;16.57;59.09
56176;BME280;63065;51.082;17.016;2023-05-19T10:20:27;101305.08;;;16.50;58.91
56176;BME280;63065;51.082;17.016;2023-05-19T10:22:52;101304.52;;;16.52;58.95
56176;BME280;63065;51.082;17.016;2023-05-19T10:25:18;101298.74;;;16.10;59.08
56176;BME280;63065;51.082;17.016;2023-05-19T10:27:48;101300.18;;;15.94;59.39
56176;BME280;63065;51.082;17.016;2023-05-19T10:30:13;101301.73;;;15.32;59.66
56176;BME280;63065;51.082;17.016;2023-05-19T10:32:36;101302.83;;;15.70;60.00
56176;BME280;63065;51.082;17.016;2023-05-19T10:35:10;101302.45;;;15.63;60.25
56176;BME280;63065;51.082;17.016;2023-05-19T10:37:40;101303.84;;;15.25;60.29
56176;BME280;63065;51.082;17.016;2023-05-19T10:39:51;101302.89;;;15.22;60.68
56176;BME280;63065;51.082;17.016;2023-05-19T10:42:24;101301.72;;;15.67;61.39
56176;BME280;63065;51.082;17.016;2023-05-19T10:44:52;101303.82;;;15.81;61.66
56176;BME280;63065;51.082;17.016;2023-05-19T10:47:07;101307.17;;;15.79;61.67
56176;BME280;63065;51.082;17.016;2023-05-19T10:49:34;101311.15;;;15.43;61.81
56176;BME280;63065;51.082;17.016;2023-05-19T10:51:58;101311.50;;;15.94;62.17
56176;BME280;63065;51.082;17.016;2023-05-19T10:56:49;101312.18;;;15.63;62.25
56176;BME280;63065;51.082;17.016;2023-05-19T11:01:39;101315.96;;;15.74;62.60
56176;BME280;63065;51.082;17.016;2023-05-19T11:04:06;101316.34;;;16.19;62.82
56176;BME280;63065;51.082;17.016;2023-05-19T11:06:32;101315.03;;;15.84;62.56
56176;BME280;63065;51.082;17.016;2023-05-19T11:08:58;101312.98;;;15.36;62.64
56176;BME280;63065;51.082;17.016;2023-05-19T11:11:22;101311.65;;;15.32;63.00
56176;BME280;63065;51.082;17.016;2023-05-19T11:13:49;101312.69;;;15.18;63.36
56176;BME280;63065;51.082;17.016;2023-05-19T11:16:13;101311.44;;;15.10;64.04
56176;BME280;63065;51.082;17.016;2023-05-19T11:18:37;101309.48;;;15.06;64.53
56176;BME280;63065;51.082;17.016;2023-05-19T11:21:03;101305.90;;;15.54;65.41
56176;BME280;63065;51.082;17.016;2023-05-19T11:23:32;101305.68;;;15.77;65.81
56176;BME280;63065;51.082;17.016;2023-05-19T11:25:54;101304.96;;;14.88;65.98
56176;BME280;63065;51.082;17.016;2023-05-19T11:28:22;101304.78;;;14.47;66.57
56176;BME280;63065;51.082;17.016;2023-05-19T11:30:47;101302.50;;;14.67;67.05
56176;BME280;63065;51.082;17.016;2023-05-19T11:33:12;101300.26;;;15.14;67.56
56176;BME280;63065;51.082;17.016;2023-05-19T11:35:36;101300.37;;;15.01;67.63
56176;BME280;63065;51.082;17.016;2023-05-19T11:38:02;101299.74;;;15.48;67.71
56176;BME280;63065;51.082;17.016;2023-05-19T11:40:29;101301.12;;;14.64;67.59
56176;BME280;63065;51.082;17.016;2023-05-19T11:42:53;101302.49;;;14.58;68.04
56176;BME280;63065;51.082;17.016;2023-05-19T11:45:23;101305.28;;;14.84;68.18
56176;BME280;63065;51.082;17.016;2023-05-19T11:47:45;101302.24;;;14.76;68.31
56176;BME280;63065;51.082;17.016;2023-05-19T11:50:10;101304.79;;;15.16;68.13
56176;BME280;63065;51.082;17.016;2023-05-19T11:52:35;101304.11;;;15.01;67.90
56176;BME280;63065;51.082;17.016;2023-05-19T11:55:00;101305.06;;;14.50;67.61
56176;BME280;63065;51.082;17.016;2023-05-19T11:57:25;101299.31;;;14.98;68.04
56176;BME280;63065;51.082;17.016;2023-05-19T11:59:51;101301.83;;;14.89;67.99
56176;BME280;63065;51.082;17.016;2023-05-19T12:02:18;101301.81;;;14.84;67.83
56176;BME280;63065;51.082;17.016;2023-05-19T12:04:43;101302.75;;;14.95;67.83
56176;BME280;63065;51.082;17.016;2023-05-19T12:07:09;101303.08;;;15.07;67.68
56176;BME280;63065;51.082;17.016;2023-05-19T12:09:33;101303.72;;;15.02;67.40
56176;BME280;63065;51.082;17.016;2023-05-19T12:12:00;101301.19;;;15.01;67.59
56176;BME280;63065;51.082;17.016;2023-05-19T12:14:25;101300.31;;;14.71;67.84
56176;BME280;63065;51.082;17.016;2023-05-19T12:16:50;101297.20;;;14.88;67.99
56176;BME280;63065;51.082;17.016;2023-05-19T12:19:15;101299.99;;;14.87;68.29
56176;BME280;63065;51.082;17.016;2023-05-19T12:21:41;101301.28;;;15.07;68.18
56176;BME280;63065;51.082;17.016;2023-05-19T12:24:06;101302.08;;;15.49;67.82
56176;BME280;63065;51.082;17.016;2023-05-19T12:26:32;101303.13;;;15.32;67.76
56176;BME280;63065;51.082;17.016;2023-05-19T12:28:57;101307.57;;;15.25;67.77
56176;BME280;63065;51.082;17.016;2023-05-19T12:31:23;101309.81;;;14.27;67.45
56176;BME280;63065;51.082;17.016;2023-05-19T12:33:48;101308.27;;;15.22;68.09
56176;BME280;63065;51.082;17.016;2023-05-19T12:36:15;101305.03;;;15.13;67.69
56176;BME280;63065;51.082;17.016;2023-05-19T12:38:40;101303.17;;;15.01;67.39